Terminal Aerodrome Forecast
Issued by NWS

Home | Current Version | Previous Version | Text Only | Print | Product List | Glossary On
Versions: 1 2 3 4 5 6 7 8 9 10 11 12 13 14 15 16 17 18 19 20
000
FTUS43 KIND 250249 AAA
TAFBMG
TAF AMD
KBMG 250249Z 2503/2524 29012G20KT P6SM VCSH SCT015 BKN040
     FM250500 27011KT P6SM BKN050
     FM251100 27012KT P6SM BKN025
     FM251800 28013KT P6SM BKN035
     FM252300 28010KT P6SM SCT050
      AMD LTD TO CLD VIS AND WIND TIL 251400=

USA.gov is the U.S. government's official web portal to all federal, state and local government web resources and services.